SZN224 GOOY-DRRN
Flight info
| Callsign | SZN224 |
|---|---|
| Flight time | 2h 30m |
| Altitude | 35000 |
| Route | ANITI UM974 GALIV GALIV1R |
| Aircraft | A321/M-SDE3FGHIRWY/LB1 |
Departure
| Time | 2026-04-22 17:30 |
|---|---|
| Airport | Léopold Sédar Senghor International Airport (GOOY) |
Arrival
| Time | 2026-04-22 20:00 |
|---|---|
| Airport | Diori Hamani International Airport (DRRN) |
| Time | Latitude | Longitude | Altitude | Speed | Heading |
|---|---|---|---|---|---|
| 2026-04-22 17:07 | 14.74245 | -17.48745 | 78 ft | 0 kts | 195° |
| 2026-04-22 17:22 | 14.74256 | -17.48742 | 68 ft | 4 kts | 192° |
| 2026-04-22 17:23 | 14.74282 | -17.48738 | 71 ft | 4 kts | 176° |
| 2026-04-22 17:23 | 14.74320 | -17.48757 | 66 ft | 0 kts | 107° |
| 2026-04-22 17:25 | 14.74314 | -17.48738 | 69 ft | 8 kts | 107° |
| 2026-04-22 17:25 | 14.74288 | -17.48644 | 81 ft | 18 kts | 106° |
| 2026-04-22 17:25 | 14.74275 | -17.48499 | 81 ft | 21 kts | 79° |
| 2026-04-22 17:26 | 14.74308 | -17.48325 | 81 ft | 29 kts | 78° |
| 2026-04-22 17:26 | 14.74328 | -17.48131 | 81 ft | 26 kts | 108° |
| 2026-04-22 17:26 | 14.74263 | -17.47966 | 86 ft | 24 kts | 112° |
| 2026-04-22 17:26 | 14.74123 | -17.47898 | 85 ft | 27 kts | 172° |
| 2026-04-22 17:27 | 14.73901 | -17.47867 | 86 ft | 37 kts | 172° |
| 2026-04-22 17:27 | 14.73609 | -17.47829 | 86 ft | 47 kts | 173° |
| 2026-04-22 17:27 | 14.73255 | -17.47783 | 90 ft | 55 kts | 172° |
| 2026-04-22 17:27 | 14.72887 | -17.47736 | 93 ft | 36 kts | 173° |
| 2026-04-22 17:28 | 14.72704 | -17.47688 | 94 ft | 18 kts | 141° |
| 2026-04-22 17:28 | 14.72644 | -17.47694 | 93 ft | 10 kts | 288° |
| 2026-04-22 17:28 | 14.72668 | -17.47703 | 93 ft | 0 kts | 353° |
| 2026-04-22 17:29 | 14.72697 | -17.47706 | 92 ft | 16 kts | 353° |
| 2026-04-22 17:29 | 14.73051 | -17.47753 | 90 ft | 84 kts | 353° |
| 2026-04-22 17:30 | 14.73520 | -17.47816 | 91 ft | 119 kts | 352° |
| 2026-04-22 17:30 | 14.74882 | -17.47994 | 160 ft | 167 kts | 351° |
| 2026-04-22 17:30 | 14.76005 | -17.48132 | 781 ft | 163 kts | 352° |
| 2026-04-22 17:30 | 14.77127 | -17.48282 | 1410 ft | 161 kts | 353° |
| 2026-04-22 17:31 | 14.78253 | -17.48394 | 1874 ft | 169 kts | 4° |
| 2026-04-22 17:31 | 14.79327 | -17.47745 | 1969 ft | 199 kts | 53° |
| 2026-04-22 17:31 | 14.79707 | -17.46307 | 2213 ft | 220 kts | 84° |
| 2026-04-22 17:31 | 14.79653 | -17.44677 | 2350 ft | 240 kts | 91° |
| 2026-04-22 17:32 | 14.79496 | -17.42854 | 2342 ft | 270 kts | 94° |
| 2026-04-22 17:32 | 14.79326 | -17.40898 | 2909 ft | 273 kts | 93° |
| 2026-04-22 17:32 | 14.79193 | -17.38922 | 3427 ft | 281 kts | 92° |
| 2026-04-22 17:32 | 14.79103 | -17.36894 | 4022 ft | 283 kts | 91° |
| 2026-04-22 17:33 | 14.79070 | -17.35543 | 4436 ft | 284 kts | 91° |
| 2026-04-22 17:33 | 14.79035 | -17.32795 | 5271 ft | 287 kts | 91° |
| 2026-04-22 17:33 | 14.79020 | -17.30721 | 5883 ft | 289 kts | 91° |
| 2026-04-22 17:33 | 14.79009 | -17.28640 | 6491 ft | 291 kts | 91° |
| 2026-04-22 17:34 | 14.78999 | -17.26545 | 7104 ft | 292 kts | 92° |
| 2026-04-22 17:34 | 14.78990 | -17.24445 | 7715 ft | 293 kts | 92° |
| 2026-04-22 17:34 | 14.78977 | -17.22336 | 8331 ft | 294 kts | 92° |
| 2026-04-22 17:34 | 14.78961 | -17.20218 | 8947 ft | 295 kts | 93° |
| 2026-04-22 17:35 | 14.78944 | -17.18119 | 9537 ft | 297 kts | 93° |
| 2026-04-22 17:35 | 14.78929 | -17.15980 | 10105 ft | 300 kts | 92° |
| 2026-04-22 17:35 | 14.78908 | -17.13759 | 10236 ft | 319 kts | 93° |
| 2026-04-22 17:35 | 14.78886 | -17.11399 | 10357 ft | 336 kts | 93° |
| 2026-04-22 17:36 | 14.78863 | -17.08932 | 10482 ft | 351 kts | 93° |
| 2026-04-22 17:36 | 14.78839 | -17.06371 | 10816 ft | 359 kts | 93° |
| 2026-04-22 17:36 | 14.78817 | -17.03775 | 11278 ft | 363 kts | 92° |
| 2026-04-22 17:36 | 14.78797 | -17.01153 | 11765 ft | 366 kts | 92° |
| 2026-04-22 17:37 | 14.78779 | -16.98501 | 12243 ft | 370 kts | 92° |
| 2026-04-22 17:37 | 14.78762 | -16.95834 | 12731 ft | 373 kts | 92° |
| 2026-04-22 17:37 | 14.78740 | -16.93141 | 13215 ft | 377 kts | 92° |
| 2026-04-22 17:37 | 14.78718 | -16.90456 | 13680 ft | 380 kts | 92° |
| 2026-04-22 17:38 | 14.78694 | -16.87715 | 14097 ft | 384 kts | 92° |
| 2026-04-22 17:38 | 14.78668 | -16.84941 | 14489 ft | 388 kts | 92° |
| 2026-04-22 17:38 | 14.78641 | -16.82142 | 14872 ft | 392 kts | 92° |
| 2026-04-22 17:38 | 14.78614 | -16.79309 | 15249 ft | 396 kts | 92° |
| 2026-04-22 17:39 | 14.78588 | -16.76457 | 15641 ft | 399 kts | 91° |
| 2026-04-22 17:39 | 14.78562 | -16.73576 | 16020 ft | 402 kts | 91° |
| 2026-04-22 17:39 | 14.78508 | -16.67747 | 16780 ft | 409 kts | 91° |
| 2026-04-22 17:40 | 14.78480 | -16.64797 | 17166 ft | 412 kts | 91° |
| 2026-04-22 17:40 | 14.78451 | -16.61835 | 17540 ft | 414 kts | 91° |
| 2026-04-22 17:40 | 14.78420 | -16.58847 | 17907 ft | 417 kts | 91° |
| 2026-04-22 17:40 | 14.78388 | -16.55831 | 18244 ft | 420 kts | 90° |
| 2026-04-22 17:41 | 14.78355 | -16.52806 | 18542 ft | 422 kts | 90° |
| 2026-04-22 17:41 | 14.78322 | -16.49764 | 18836 ft | 424 kts | 90° |
| 2026-04-22 17:41 | 14.78300 | -16.47739 | 19020 ft | 425 kts | 90° |
| 2026-04-22 17:41 | 14.78269 | -16.44681 | 19294 ft | 427 kts | 90° |
| 2026-04-22 17:42 | 14.78229 | -16.40606 | 19662 ft | 429 kts | 90° |
| 2026-04-22 17:42 | 14.78198 | -16.37517 | 19934 ft | 431 kts | 90° |
| 2026-04-22 17:42 | 14.78174 | -16.35420 | 20111 ft | 432 kts | 90° |
| 2026-04-22 17:42 | 14.78125 | -16.31301 | 20465 ft | 434 kts | 90° |
| 2026-04-22 17:43 | 14.78099 | -16.29192 | 20643 ft | 435 kts | 90° |
| 2026-04-22 17:43 | 14.78063 | -16.26061 | 20904 ft | 437 kts | 90° |
| 2026-04-22 17:43 | 14.78028 | -16.22958 | 21157 ft | 438 kts | 90° |
| 2026-04-22 17:43 | 14.77991 | -16.19803 | 21427 ft | 440 kts | 90° |
| 2026-04-22 17:44 | 14.77952 | -16.16633 | 21692 ft | 441 kts | 90° |
| 2026-04-22 17:44 | 14.77913 | -16.13458 | 21956 ft | 443 kts | 90° |
| 2026-04-22 17:44 | 14.77875 | -16.10266 | 22213 ft | 445 kts | 90° |
| 2026-04-22 17:44 | 14.77837 | -16.07061 | 22484 ft | 446 kts | 90° |
| 2026-04-22 17:45 | 14.77797 | -16.03853 | 22746 ft | 448 kts | 90° |
| 2026-04-22 17:45 | 14.77756 | -16.00630 | 23013 ft | 450 kts | 90° |
| 2026-04-22 17:45 | 14.77717 | -15.97387 | 23277 ft | 451 kts | 90° |
| 2026-04-22 17:45 | 14.77679 | -15.94137 | 23514 ft | 453 kts | 90° |
| 2026-04-22 17:46 | 14.77639 | -15.90878 | 23728 ft | 454 kts | 90° |
| 2026-04-22 17:46 | 14.77597 | -15.87609 | 23946 ft | 456 kts | 90° |
| 2026-04-22 17:46 | 14.77553 | -15.84330 | 24160 ft | 457 kts | 90° |
| 2026-04-22 17:46 | 14.77506 | -15.81041 | 24373 ft | 459 kts | 90° |
| 2026-04-22 17:47 | 14.77458 | -15.77743 | 24575 ft | 460 kts | 90° |
| 2026-04-22 17:47 | 14.77411 | -15.74428 | 24783 ft | 462 kts | 90° |
| 2026-04-22 17:47 | 14.77363 | -15.71147 | 24986 ft | 463 kts | 90° |
| 2026-04-22 17:47 | 14.77313 | -15.67809 | 25185 ft | 465 kts | 90° |
| 2026-04-22 17:48 | 14.77262 | -15.64459 | 25385 ft | 467 kts | 90° |
| 2026-04-22 17:48 | 14.77214 | -15.61103 | 25589 ft | 468 kts | 90° |
| 2026-04-22 17:48 | 14.77168 | -15.57739 | 25786 ft | 470 kts | 90° |
| 2026-04-22 17:48 | 14.77123 | -15.54354 | 25988 ft | 471 kts | 90° |
| 2026-04-22 17:49 | 14.77077 | -15.50959 | 26185 ft | 473 kts | 90° |
| 2026-04-22 17:49 | 14.77030 | -15.47555 | 26376 ft | 475 kts | 90° |
| 2026-04-22 17:49 | 14.76979 | -15.44135 | 26577 ft | 476 kts | 90° |
| 2026-04-22 17:49 | 14.76929 | -15.40712 | 26774 ft | 478 kts | 90° |
| 2026-04-22 17:50 | 14.76872 | -15.37275 | 26968 ft | 479 kts | 90° |
| 2026-04-22 17:50 | 14.76815 | -15.33824 | 27160 ft | 481 kts | 90° |
| 2026-04-22 17:50 | 14.76759 | -15.30363 | 27346 ft | 483 kts | 90° |
| 2026-04-22 17:50 | 14.76703 | -15.26884 | 27539 ft | 484 kts | 90° |
| 2026-04-22 17:51 | 14.76646 | -15.23438 | 27728 ft | 486 kts | 90° |
| 2026-04-22 17:51 | 14.76589 | -15.19938 | 27920 ft | 487 kts | 90° |
| 2026-04-22 17:51 | 14.76534 | -15.16428 | 28104 ft | 489 kts | 90° |
| 2026-04-22 17:51 | 14.76479 | -15.12907 | 28280 ft | 491 kts | 90° |
| 2026-04-22 17:52 | 14.76422 | -15.09376 | 28453 ft | 492 kts | 90° |
| 2026-04-22 17:52 | 14.76360 | -15.05825 | 28620 ft | 493 kts | 90° |
| 2026-04-22 17:52 | 14.76297 | -15.02316 | 28777 ft | 495 kts | 90° |
| 2026-04-22 17:52 | 14.76247 | -14.98757 | 28924 ft | 496 kts | 89° |
| 2026-04-22 17:53 | 14.76236 | -14.95179 | 29069 ft | 497 kts | 89° |
| 2026-04-22 17:53 | 14.76255 | -14.91605 | 29203 ft | 498 kts | 88° |
| 2026-04-22 17:53 | 14.76286 | -14.88019 | 29334 ft | 499 kts | 88° |
| 2026-04-22 17:53 | 14.76314 | -14.84461 | 29466 ft | 500 kts | 88° |
| 2026-04-22 17:54 | 14.76337 | -14.80836 | 29613 ft | 501 kts | 88° |
| 2026-04-22 17:54 | 14.76346 | -14.77239 | 29790 ft | 501 kts | 89° |
| 2026-04-22 17:54 | 14.76348 | -14.73644 | 29949 ft | 500 kts | 89° |
| 2026-04-22 17:54 | 14.76346 | -14.70047 | 30098 ft | 500 kts | 89° |
| 2026-04-22 17:55 | 14.76339 | -14.66452 | 30253 ft | 500 kts | 89° |
| 2026-04-22 17:55 | 14.76333 | -14.62897 | 30408 ft | 499 kts | 89° |
| 2026-04-22 17:55 | 14.76329 | -14.59307 | 30574 ft | 499 kts | 89° |
| 2026-04-22 17:55 | 14.76326 | -14.55713 | 30733 ft | 498 kts | 89° |
| 2026-04-22 17:56 | 14.76326 | -14.52116 | 30891 ft | 498 kts | 89° |
| 2026-04-22 17:56 | 14.76331 | -14.48576 | 31055 ft | 498 kts | 89° |
| 2026-04-22 17:56 | 14.76334 | -14.44986 | 31217 ft | 497 kts | 89° |
| 2026-04-22 17:56 | 14.76336 | -14.41402 | 31381 ft | 497 kts | 90° |
| 2026-04-22 17:57 | 14.76334 | -14.37831 | 31549 ft | 497 kts | 90° |
| 2026-04-22 17:57 | 14.76329 | -14.34261 | 31718 ft | 496 kts | 90° |
| 2026-04-22 17:57 | 14.76322 | -14.30746 | 31879 ft | 496 kts | 90° |
| 2026-04-22 17:57 | 14.76316 | -14.27174 | 32046 ft | 496 kts | 90° |
| 2026-04-22 17:58 | 14.76312 | -14.23616 | 32219 ft | 495 kts | 90° |
| 2026-04-22 17:58 | 14.76309 | -14.20053 | 32396 ft | 495 kts | 90° |
| 2026-04-22 17:58 | 14.76304 | -14.16500 | 32564 ft | 494 kts | 90° |
| 2026-04-22 17:58 | 14.76299 | -14.12948 | 32734 ft | 494 kts | 91° |
| 2026-04-22 17:59 | 14.76292 | -14.09432 | 32906 ft | 494 kts | 91° |
| 2026-04-22 17:59 | 14.76282 | -14.05888 | 33077 ft | 493 kts | 91° |
| 2026-04-22 17:59 | 14.76273 | -14.02338 | 33250 ft | 493 kts | 91° |
| 2026-04-22 17:59 | 14.76267 | -13.98798 | 33418 ft | 493 kts | 91° |
| 2026-04-22 18:00 | 14.76263 | -13.96458 | 33530 ft | 492 kts | 91° |
| 2026-04-22 18:00 | 14.76254 | -13.91724 | 33763 ft | 492 kts | 91° |
| 2026-04-22 18:00 | 14.76245 | -13.88176 | 33909 ft | 491 kts | 91° |
| 2026-04-22 18:00 | 14.76232 | -13.84646 | 34051 ft | 491 kts | 92° |
| 2026-04-22 18:01 | 14.76217 | -13.81120 | 34196 ft | 491 kts | 92° |
| 2026-04-22 18:01 | 14.76202 | -13.77636 | 34343 ft | 490 kts | 92° |
| 2026-04-22 18:01 | 14.76189 | -13.74110 | 34491 ft | 490 kts | 92° |
| 2026-04-22 18:01 | 14.76181 | -13.70586 | 34634 ft | 489 kts | 92° |
| 2026-04-22 18:02 | 14.76173 | -13.67071 | 34762 ft | 490 kts | 92° |
| 2026-04-22 18:02 | 14.76149 | -13.59995 | 34798 ft | 495 kts | 92° |
| 2026-04-22 18:03 | 14.76119 | -13.52870 | 34798 ft | 500 kts | 92° |
| 2026-04-22 18:03 | 14.76074 | -13.45626 | 34791 ft | 504 kts | 92° |
| 2026-04-22 18:04 | 14.76037 | -13.38393 | 34792 ft | 507 kts | 92° |
| 2026-04-22 18:04 | 14.76005 | -13.31104 | 34789 ft | 507 kts | 92° |
| 2026-04-22 18:05 | 14.75967 | -13.23798 | 34796 ft | 508 kts | 92° |
| 2026-04-22 18:05 | 14.75921 | -13.16492 | 34797 ft | 508 kts | 92° |
| 2026-04-22 18:06 | 14.75875 | -13.09224 | 34798 ft | 508 kts | 92° |
| 2026-04-22 18:06 | 14.75833 | -13.01910 | 34800 ft | 508 kts | 92° |
| 2026-04-22 18:07 | 14.75785 | -12.94598 | 34796 ft | 508 kts | 92° |
| 2026-04-22 18:07 | 14.75731 | -12.87290 | 34794 ft | 508 kts | 92° |
| 2026-04-22 18:08 | 14.75679 | -12.80013 | 34792 ft | 508 kts | 92° |
| 2026-04-22 18:08 | 14.75622 | -12.72696 | 34788 ft | 508 kts | 92° |
| 2026-04-22 18:09 | 14.75564 | -12.65425 | 34786 ft | 508 kts | 92° |
| 2026-04-22 18:09 | 14.75506 | -12.58092 | 34786 ft | 508 kts | 92° |
| 2026-04-22 18:10 | 14.75446 | -12.50828 | 34784 ft | 508 kts | 92° |
| 2026-04-22 18:10 | 14.75376 | -12.43516 | 34781 ft | 508 kts | 92° |
| 2026-04-22 18:11 | 14.75308 | -12.36200 | 34776 ft | 508 kts | 92° |
| 2026-04-22 18:11 | 14.75241 | -12.28926 | 34774 ft | 508 kts | 92° |
| 2026-04-22 18:12 | 14.75169 | -12.21606 | 34766 ft | 508 kts | 92° |
| 2026-04-22 18:12 | 14.75105 | -12.15528 | 34768 ft | 508 kts | 92° |
| 2026-04-22 18:13 | 14.75017 | -12.07025 | 34766 ft | 508 kts | 92° |
| 2026-04-22 18:13 | 14.74935 | -11.99707 | 34763 ft | 508 kts | 92° |
| 2026-04-22 18:14 | 14.74845 | -11.92394 | 34763 ft | 508 kts | 92° |
| 2026-04-22 18:14 | 14.74764 | -11.85123 | 34757 ft | 508 kts | 92° |
| 2026-04-22 18:15 | 14.74682 | -11.77812 | 34760 ft | 508 kts | 92° |
| 2026-04-22 18:15 | 14.74594 | -11.70507 | 34757 ft | 508 kts | 92° |
| 2026-04-22 18:16 | 14.74498 | -11.63197 | 34756 ft | 508 kts | 92° |
| 2026-04-22 18:16 | 14.74399 | -11.55927 | 34751 ft | 508 kts | 92° |
| 2026-04-22 18:17 | 14.74303 | -11.48619 | 34746 ft | 508 kts | 92° |
| 2026-04-22 18:17 | 14.74209 | -11.41312 | 34748 ft | 508 kts | 92° |
| 2026-04-22 18:18 | 14.74113 | -11.34048 | 34746 ft | 508 kts | 92° |
| 2026-04-22 18:18 | 14.74016 | -11.26733 | 34741 ft | 508 kts | 92° |
| 2026-04-22 18:19 | 14.73910 | -11.19425 | 34738 ft | 508 kts | 92° |
| 2026-04-22 18:19 | 14.73799 | -11.12171 | 34739 ft | 508 kts | 92° |
| 2026-04-22 18:20 | 14.73693 | -11.04868 | 34738 ft | 508 kts | 92° |
| 2026-04-22 18:20 | 14.73579 | -10.97546 | 34736 ft | 508 kts | 92° |
| 2026-04-22 18:21 | 14.73457 | -10.90292 | 34738 ft | 508 kts | 92° |
| 2026-04-22 18:21 | 14.73340 | -10.82986 | 34736 ft | 508 kts | 92° |
| 2026-04-22 18:22 | 14.73223 | -10.75691 | 34742 ft | 508 kts | 92° |
| 2026-04-22 18:22 | 14.73107 | -10.68390 | 34741 ft | 508 kts | 92° |
| 2026-04-22 18:23 | 14.72980 | -10.61127 | 34742 ft | 508 kts | 92° |
| 2026-04-22 18:23 | 14.72850 | -10.53811 | 34741 ft | 508 kts | 92° |
| 2026-04-22 18:24 | 14.72658 | -10.42901 | 34744 ft | 508 kts | 92° |
| 2026-04-22 18:25 | 14.72465 | -10.31991 | 34747 ft | 507 kts | 92° |
| 2026-04-22 18:25 | 14.72324 | -10.24692 | 34745 ft | 507 kts | 92° |
| 2026-04-22 18:26 | 14.72116 | -10.13797 | 34745 ft | 507 kts | 92° |
| 2026-04-22 18:26 | 14.71982 | -10.06511 | 34746 ft | 507 kts | 92° |
| 2026-04-22 18:27 | 14.71832 | -9.99204 | 34744 ft | 507 kts | 92° |
| 2026-04-22 18:27 | 14.71678 | -9.91914 | 34743 ft | 507 kts | 92° |
| 2026-04-22 18:28 | 14.71531 | -9.84684 | 34745 ft | 507 kts | 92° |
| 2026-04-22 18:28 | 14.71383 | -9.77384 | 34750 ft | 507 kts | 92° |
| 2026-04-22 18:29 | 14.71239 | -9.70132 | 34748 ft | 507 kts | 92° |
| 2026-04-22 18:29 | 14.71079 | -9.62839 | 34747 ft | 507 kts | 92° |
| 2026-04-22 18:30 | 14.70867 | -9.53143 | 34747 ft | 507 kts | 92° |
| 2026-04-22 18:31 | 14.70714 | -9.45890 | 34749 ft | 507 kts | 92° |
| 2026-04-22 18:31 | 14.70563 | -9.38595 | 34751 ft | 507 kts | 92° |
| 2026-04-22 18:32 | 14.70401 | -9.31313 | 34750 ft | 507 kts | 92° |
| 2026-04-22 18:32 | 14.70233 | -9.24070 | 34750 ft | 507 kts | 92° |
| 2026-04-22 18:33 | 14.70069 | -9.16767 | 34748 ft | 507 kts | 92° |
| 2026-04-22 18:33 | 14.69910 | -9.09529 | 34754 ft | 507 kts | 92° |
| 2026-04-22 18:34 | 14.69744 | -9.02242 | 34753 ft | 507 kts | 92° |
| 2026-04-22 18:34 | 14.69561 | -8.94961 | 34757 ft | 507 kts | 92° |
| 2026-04-22 18:35 | 14.69381 | -8.87673 | 34755 ft | 507 kts | 92° |
| 2026-04-22 18:35 | 14.69209 | -8.80395 | 34756 ft | 507 kts | 92° |
| 2026-04-22 18:36 | 14.69031 | -8.73158 | 34759 ft | 507 kts | 92° |
| 2026-04-22 18:36 | 14.68849 | -8.65901 | 34759 ft | 507 kts | 92° |
| 2026-04-22 18:37 | 14.68657 | -8.58599 | 34759 ft | 507 kts | 92° |
| 2026-04-22 18:37 | 14.68462 | -8.51304 | 34758 ft | 507 kts | 92° |
| 2026-04-22 18:38 | 14.68267 | -8.44076 | 34758 ft | 507 kts | 92° |
| 2026-04-22 18:38 | 14.68070 | -8.36778 | 34758 ft | 507 kts | 92° |
| 2026-04-22 18:39 | 14.67779 | -8.25903 | 34760 ft | 507 kts | 92° |
| 2026-04-22 18:39 | 14.67580 | -8.18613 | 34762 ft | 507 kts | 92° |
| 2026-04-22 18:40 | 14.67374 | -8.11332 | 34763 ft | 507 kts | 92° |
| 2026-04-22 18:40 | 14.67169 | -8.04089 | 34764 ft | 507 kts | 92° |
| 2026-04-22 18:41 | 14.66961 | -7.96807 | 34766 ft | 507 kts | 92° |
| 2026-04-22 18:41 | 14.66752 | -7.89517 | 34764 ft | 507 kts | 92° |
| 2026-04-22 18:42 | 14.66548 | -7.82235 | 34763 ft | 507 kts | 92° |
| 2026-04-22 18:42 | 14.66343 | -7.74957 | 34769 ft | 507 kts | 92° |
| 2026-04-22 18:43 | 14.66126 | -7.67713 | 34769 ft | 507 kts | 92° |
| 2026-04-22 18:43 | 14.65906 | -7.60425 | 34773 ft | 507 kts | 92° |
| 2026-04-22 18:44 | 14.65684 | -7.53133 | 34773 ft | 507 kts | 92° |
| 2026-04-22 18:44 | 14.65466 | -7.45876 | 34777 ft | 508 kts | 92° |
| 2026-04-22 18:45 | 14.65252 | -7.38584 | 34776 ft | 508 kts | 92° |
| 2026-04-22 18:45 | 14.65024 | -7.31294 | 34782 ft | 508 kts | 92° |
| 2026-04-22 18:46 | 14.64790 | -7.24010 | 34779 ft | 508 kts | 92° |
| 2026-04-22 18:46 | 14.64565 | -7.16720 | 34781 ft | 508 kts | 92° |
| 2026-04-22 18:47 | 14.64336 | -7.09428 | 34784 ft | 508 kts | 92° |
| 2026-04-22 18:47 | 14.64099 | -7.02137 | 34789 ft | 509 kts | 92° |
| 2026-04-22 18:48 | 14.63862 | -6.94875 | 34792 ft | 509 kts | 92° |
| 2026-04-22 18:48 | 14.63613 | -6.87568 | 34793 ft | 510 kts | 92° |
| 2026-04-22 18:49 | 14.63371 | -6.80249 | 34796 ft | 510 kts | 92° |
| 2026-04-22 18:49 | 14.63123 | -6.72923 | 34800 ft | 511 kts | 92° |
| 2026-04-22 18:50 | 14.62874 | -6.65590 | 34808 ft | 511 kts | 92° |
| 2026-04-22 18:50 | 14.62625 | -6.58251 | 34809 ft | 511 kts | 92° |
| 2026-04-22 18:51 | 14.62369 | -6.50918 | 34810 ft | 511 kts | 92° |
| 2026-04-22 18:51 | 14.62109 | -6.43578 | 34813 ft | 511 kts | 92° |
| 2026-04-22 18:52 | 14.61860 | -6.36284 | 34815 ft | 511 kts | 92° |
| 2026-04-22 18:52 | 14.61599 | -6.28947 | 34812 ft | 511 kts | 92° |
| 2026-04-22 18:53 | 14.61335 | -6.21612 | 34810 ft | 511 kts | 92° |
| 2026-04-22 18:53 | 14.61068 | -6.14277 | 34813 ft | 511 kts | 92° |
| 2026-04-22 18:54 | 14.60806 | -6.06936 | 34813 ft | 511 kts | 92° |
| 2026-04-22 18:54 | 14.60540 | -5.99639 | 34813 ft | 511 kts | 92° |
| 2026-04-22 18:55 | 14.60263 | -5.92305 | 34818 ft | 511 kts | 92° |
| 2026-04-22 18:55 | 14.59981 | -5.84981 | 34822 ft | 511 kts | 92° |
| 2026-04-22 18:56 | 14.59701 | -5.77656 | 34824 ft | 511 kts | 92° |
| 2026-04-22 18:56 | 14.59423 | -5.70326 | 34824 ft | 511 kts | 92° |
| 2026-04-22 18:57 | 14.59155 | -5.63001 | 34826 ft | 511 kts | 92° |
| 2026-04-22 18:57 | 14.58877 | -5.55673 | 34826 ft | 511 kts | 92° |
| 2026-04-22 18:58 | 14.58587 | -5.48349 | 34823 ft | 511 kts | 92° |
| 2026-04-22 18:58 | 14.58300 | -5.41056 | 34823 ft | 511 kts | 92° |
| 2026-04-22 18:59 | 14.58006 | -5.33727 | 34826 ft | 511 kts | 92° |
| 2026-04-22 18:59 | 14.57713 | -5.26393 | 34819 ft | 511 kts | 92° |
| 2026-04-22 19:00 | 14.57420 | -5.19060 | 34814 ft | 511 kts | 92° |
| 2026-04-22 19:00 | 14.57118 | -5.11720 | 34812 ft | 511 kts | 92° |
| 2026-04-22 19:01 | 14.56818 | -5.04387 | 34807 ft | 511 kts | 92° |
| 2026-04-22 19:01 | 14.56514 | -4.97048 | 34799 ft | 512 kts | 92° |
| 2026-04-22 19:02 | 14.56209 | -4.89701 | 34801 ft | 512 kts | 92° |
| 2026-04-22 19:02 | 14.55906 | -4.82395 | 34809 ft | 513 kts | 92° |
| 2026-04-22 19:03 | 14.55598 | -4.75044 | 34810 ft | 512 kts | 92° |
| 2026-04-22 19:03 | 14.55283 | -4.67706 | 34809 ft | 512 kts | 92° |
| 2026-04-22 19:04 | 14.54960 | -4.60367 | 34805 ft | 511 kts | 92° |
| 2026-04-22 19:04 | 14.54644 | -4.53041 | 34809 ft | 511 kts | 92° |
| 2026-04-22 19:05 | 14.54328 | -4.45715 | 34805 ft | 510 kts | 92° |
| 2026-04-22 19:05 | 14.54020 | -4.38453 | 34811 ft | 510 kts | 92° |
| 2026-04-22 19:06 | 14.53704 | -4.31138 | 34817 ft | 509 kts | 92° |
| 2026-04-22 19:07 | 14.53227 | -4.20193 | 34826 ft | 508 kts | 92° |
| 2026-04-22 19:07 | 14.52895 | -4.12901 | 34829 ft | 508 kts | 92° |
| 2026-04-22 19:08 | 14.52558 | -4.05614 | 34825 ft | 509 kts | 92° |
| 2026-04-22 19:08 | 14.52080 | -3.98310 | 34813 ft | 510 kts | 94° |
| 2026-04-22 19:09 | 14.51479 | -3.90999 | 34804 ft | 511 kts | 94° |
| 2026-04-22 19:09 | 14.50985 | -3.84913 | 34807 ft | 512 kts | 94° |
| 2026-04-22 19:10 | 14.50348 | -3.76341 | 34802 ft | 513 kts | 94° |
| 2026-04-22 19:10 | 14.49809 | -3.69035 | 34809 ft | 513 kts | 94° |
| 2026-04-22 19:11 | 14.49254 | -3.61687 | 34818 ft | 513 kts | 94° |
| 2026-04-22 19:11 | 14.48689 | -3.54335 | 34824 ft | 513 kts | 94° |
| 2026-04-22 19:12 | 14.48137 | -3.46999 | 34838 ft | 512 kts | 93° |
| 2026-04-22 19:12 | 14.47583 | -3.39663 | 34837 ft | 511 kts | 93° |
| 2026-04-22 19:13 | 14.47013 | -3.32344 | 34838 ft | 511 kts | 94° |
| 2026-04-22 19:13 | 14.46442 | -3.25044 | 34839 ft | 511 kts | 94° |
| 2026-04-22 19:14 | 14.45880 | -3.17746 | 34837 ft | 510 kts | 94° |
| 2026-04-22 19:14 | 14.45313 | -3.10505 | 34835 ft | 509 kts | 94° |
| 2026-04-22 19:15 | 14.44838 | -3.04403 | 34838 ft | 509 kts | 94° |
| 2026-04-22 19:15 | 14.44177 | -2.95944 | 34835 ft | 509 kts | 94° |
| 2026-04-22 19:16 | 14.43607 | -2.88675 | 34853 ft | 508 kts | 94° |
| 2026-04-22 19:16 | 14.43031 | -2.81424 | 34802 ft | 505 kts | 94° |
| 2026-04-22 19:17 | 14.42458 | -2.74204 | 34796 ft | 505 kts | 94° |
| 2026-04-22 19:17 | 14.41882 | -2.66976 | 34798 ft | 506 kts | 94° |
| 2026-04-22 19:18 | 14.41310 | -2.59789 | 34806 ft | 506 kts | 94° |
| 2026-04-22 19:18 | 14.40742 | -2.52547 | 34811 ft | 507 kts | 94° |
| 2026-04-22 19:19 | 14.40133 | -2.45302 | 34819 ft | 507 kts | 97° |
| 2026-04-22 19:19 | 14.38829 | -2.38124 | 34795 ft | 511 kts | 101° |
| 2026-04-22 19:20 | 14.37468 | -2.30921 | 34795 ft | 513 kts | 101° |
| 2026-04-22 19:20 | 14.36347 | -2.24907 | 34807 ft | 514 kts | 101° |
| 2026-04-22 19:21 | 14.34998 | -2.17673 | 34818 ft | 514 kts | 101° |
| 2026-04-22 19:21 | 14.33637 | -2.10438 | 34825 ft | 514 kts | 101° |
| 2026-04-22 19:22 | 14.32267 | -2.03201 | 34836 ft | 514 kts | 101° |
| 2026-04-22 19:22 | 14.30898 | -1.95981 | 34848 ft | 512 kts | 101° |
| 2026-04-22 19:23 | 14.29540 | -1.88784 | 34845 ft | 510 kts | 101° |
| 2026-04-22 19:23 | 14.28180 | -1.81606 | 34841 ft | 509 kts | 101° |
| 2026-04-22 19:24 | 14.26820 | -1.74438 | 34841 ft | 509 kts | 101° |
| 2026-04-22 19:24 | 14.25463 | -1.67298 | 34851 ft | 507 kts | 101° |
| 2026-04-22 19:25 | 14.24103 | -1.60179 | 34848 ft | 505 kts | 101° |
| 2026-04-22 19:25 | 14.22759 | -1.53123 | 34845 ft | 504 kts | 101° |
| 2026-04-22 19:26 | 14.21402 | -1.46036 | 34843 ft | 504 kts | 101° |
| 2026-04-22 19:26 | 14.20052 | -1.38951 | 34841 ft | 503 kts | 101° |
| 2026-04-22 19:27 | 14.18694 | -1.31871 | 34843 ft | 503 kts | 101° |
| 2026-04-22 19:27 | 14.17338 | -1.24796 | 34841 ft | 503 kts | 101° |
| 2026-04-22 19:28 | 14.15977 | -1.17721 | 34842 ft | 503 kts | 101° |
| 2026-04-22 19:28 | 14.14611 | -1.10659 | 34846 ft | 502 kts | 101° |
| 2026-04-22 19:29 | 14.13251 | -1.03607 | 34851 ft | 501 kts | 101° |
| 2026-04-22 19:29 | 14.11903 | -0.96614 | 34847 ft | 499 kts | 101° |
| 2026-04-22 19:30 | 14.10779 | -0.90786 | 34851 ft | 498 kts | 101° |
| 2026-04-22 19:30 | 14.09195 | -0.82591 | 34836 ft | 498 kts | 101° |
| 2026-04-22 19:31 | 14.07828 | -0.75580 | 34830 ft | 499 kts | 101° |
| 2026-04-22 19:31 | 14.06461 | -0.68586 | 34852 ft | 497 kts | 101° |
| 2026-04-22 19:32 | 14.05106 | -0.61610 | 34853 ft | 495 kts | 101° |
| 2026-04-22 19:32 | 14.03774 | -0.54756 | 34821 ft | 486 kts | 101° |
| 2026-04-22 19:33 | 14.02427 | -0.47889 | 34824 ft | 490 kts | 101° |
| 2026-04-22 19:33 | 14.01081 | -0.40999 | 34824 ft | 492 kts | 101° |
| 2026-04-22 19:34 | 13.99718 | -0.34025 | 34827 ft | 502 kts | 101° |
| 2026-04-22 19:34 | 13.98328 | -0.26934 | 34827 ft | 509 kts | 101° |
| 2026-04-22 19:35 | 13.96914 | -0.19750 | 34824 ft | 514 kts | 101° |
| 2026-04-22 19:35 | 13.95483 | -0.12496 | 34825 ft | 519 kts | 101° |
| 2026-04-22 19:36 | 13.94040 | -0.05189 | 34825 ft | 521 kts | 101° |
| 2026-04-22 19:36 | 13.92620 | 0.02007 | 34819 ft | 512 kts | 101° |
| 2026-04-22 19:37 | 13.91215 | 0.09104 | 34816 ft | 497 kts | 101° |
| 2026-04-22 19:37 | 13.89839 | 0.16028 | 34822 ft | 492 kts | 101° |
| 2026-04-22 19:38 | 13.88472 | 0.22915 | 34821 ft | 491 kts | 101° |
| 2026-04-22 19:38 | 13.87101 | 0.29794 | 34418 ft | 491 kts | 101° |
| 2026-04-22 19:38 | 13.86400 | 0.33282 | 33229 ft | 503 kts | 100° |
| 2026-04-22 19:39 | 13.85705 | 0.36771 | 32603 ft | 500 kts | 99° |
| 2026-04-22 19:39 | 13.85009 | 0.40261 | 31980 ft | 497 kts | 99° |
| 2026-04-22 19:39 | 13.84317 | 0.43745 | 31301 ft | 496 kts | 98° |
| 2026-04-22 19:39 | 13.83626 | 0.47218 | 30641 ft | 495 kts | 98° |
| 2026-04-22 19:40 | 13.82934 | 0.50686 | 29988 ft | 494 kts | 97° |
| 2026-04-22 19:40 | 13.82244 | 0.54138 | 29261 ft | 492 kts | 97° |
| 2026-04-22 19:40 | 13.81555 | 0.57576 | 28640 ft | 487 kts | 98° |
| 2026-04-22 19:40 | 13.80871 | 0.60976 | 28000 ft | 483 kts | 98° |
| 2026-04-22 19:41 | 13.80192 | 0.64345 | 27362 ft | 479 kts | 99° |
| 2026-04-22 19:41 | 13.79519 | 0.67696 | 26751 ft | 475 kts | 99° |
| 2026-04-22 19:41 | 13.78855 | 0.71015 | 26136 ft | 471 kts | 100° |
| 2026-04-22 19:41 | 13.78197 | 0.74298 | 25541 ft | 467 kts | 100° |
| 2026-04-22 19:42 | 13.77546 | 0.77559 | 24954 ft | 463 kts | 101° |
| 2026-04-22 19:42 | 13.76899 | 0.80788 | 24380 ft | 459 kts | 101° |
| 2026-04-22 19:42 | 13.76256 | 0.83989 | 23829 ft | 455 kts | 102° |
| 2026-04-22 19:42 | 13.75620 | 0.87164 | 23261 ft | 450 kts | 102° |
| 2026-04-22 19:43 | 13.74367 | 0.93363 | 22203 ft | 434 kts | 102° |
| 2026-04-22 19:43 | 13.73759 | 0.96373 | 21710 ft | 425 kts | 102° |
| 2026-04-22 19:43 | 13.73166 | 0.99320 | 21235 ft | 417 kts | 102° |
| 2026-04-22 19:44 | 13.72591 | 1.02184 | 20753 ft | 410 kts | 102° |
| 2026-04-22 19:44 | 13.72018 | 1.05035 | 20280 ft | 404 kts | 102° |
| 2026-04-22 19:44 | 13.71448 | 1.07846 | 19791 ft | 399 kts | 102° |
| 2026-04-22 19:44 | 13.70882 | 1.10623 | 19315 ft | 395 kts | 102° |
| 2026-04-22 19:45 | 13.70323 | 1.13367 | 18820 ft | 391 kts | 102° |
| 2026-04-22 19:45 | 13.69770 | 1.16088 | 18344 ft | 387 kts | 101° |
| 2026-04-22 19:45 | 13.69223 | 1.18786 | 17824 ft | 384 kts | 101° |
| 2026-04-22 19:45 | 13.68681 | 1.21463 | 17337 ft | 379 kts | 101° |
| 2026-04-22 19:46 | 13.68146 | 1.24100 | 16863 ft | 374 kts | 101° |
| 2026-04-22 19:46 | 13.67617 | 1.26703 | 16390 ft | 370 kts | 102° |
| 2026-04-22 19:46 | 13.67092 | 1.29280 | 15931 ft | 365 kts | 101° |
| 2026-04-22 19:46 | 13.66574 | 1.31819 | 15481 ft | 361 kts | 102° |
| 2026-04-22 19:47 | 13.66064 | 1.34331 | 15033 ft | 357 kts | 102° |
| 2026-04-22 19:47 | 13.65561 | 1.36817 | 14593 ft | 353 kts | 102° |
| 2026-04-22 19:47 | 13.65229 | 1.38452 | 14294 ft | 350 kts | 102° |
| 2026-04-22 19:47 | 13.64566 | 1.41710 | 13703 ft | 345 kts | 102° |
| 2026-04-22 19:48 | 13.64075 | 1.44111 | 13230 ft | 342 kts | 102° |
| 2026-04-22 19:48 | 13.63588 | 1.46487 | 12777 ft | 337 kts | 101° |
| 2026-04-22 19:48 | 13.63110 | 1.48826 | 12351 ft | 332 kts | 101° |
| 2026-04-22 19:48 | 13.62638 | 1.51131 | 11916 ft | 327 kts | 101° |
| 2026-04-22 19:49 | 13.62174 | 1.53406 | 11481 ft | 323 kts | 101° |
| 2026-04-22 19:49 | 13.61720 | 1.55626 | 11051 ft | 320 kts | 101° |
| 2026-04-22 19:49 | 13.61266 | 1.57852 | 10622 ft | 316 kts | 100° |
| 2026-04-22 19:49 | 13.60816 | 1.60053 | 10252 ft | 311 kts | 100° |
| 2026-04-22 19:50 | 13.60380 | 1.62177 | 10129 ft | 297 kts | 100° |
| 2026-04-22 19:50 | 13.59957 | 1.64222 | 9875 ft | 289 kts | 100° |
| 2026-04-22 19:50 | 13.59544 | 1.66225 | 9707 ft | 285 kts | 100° |
| 2026-04-22 19:50 | 13.59137 | 1.68221 | 9583 ft | 284 kts | 100° |
| 2026-04-22 19:51 | 13.58732 | 1.70211 | 9312 ft | 284 kts | 100° |
| 2026-04-22 19:51 | 13.58328 | 1.72190 | 8934 ft | 282 kts | 100° |
| 2026-04-22 19:51 | 13.57925 | 1.74155 | 8543 ft | 280 kts | 100° |
| 2026-04-22 19:51 | 13.57522 | 1.76109 | 8155 ft | 279 kts | 100° |
| 2026-04-22 19:52 | 13.57122 | 1.78049 | 7768 ft | 277 kts | 100° |
| 2026-04-22 19:52 | 13.56724 | 1.79978 | 7376 ft | 275 kts | 100° |
| 2026-04-22 19:52 | 13.56327 | 1.81899 | 6995 ft | 274 kts | 100° |
| 2026-04-22 19:52 | 13.55932 | 1.83812 | 6609 ft | 273 kts | 100° |
| 2026-04-22 19:53 | 13.55546 | 1.85687 | 6239 ft | 271 kts | 100° |
| 2026-04-22 19:53 | 13.55139 | 1.87570 | 5849 ft | 270 kts | 105° |
| 2026-04-22 19:53 | 13.54619 | 1.88757 | 5591 ft | 271 kts | 120° |
| 2026-04-22 19:53 | 13.52940 | 1.90583 | 5386 ft | 258 kts | 133° |
| 2026-04-22 19:54 | 13.51804 | 1.91940 | 5250 ft | 244 kts | 120° |
| 2026-04-22 19:54 | 13.50946 | 1.93480 | 4676 ft | 250 kts | 116° |
| 2026-04-22 19:54 | 13.50113 | 1.95033 | 4124 ft | 243 kts | 116° |
| 2026-04-22 19:54 | 13.49325 | 1.96493 | 3883 ft | 221 kts | 115° |
| 2026-04-22 19:55 | 13.48598 | 1.97839 | 3819 ft | 211 kts | 115° |
| 2026-04-22 19:55 | 13.47900 | 1.99139 | 3831 ft | 206 kts | 115° |
| 2026-04-22 19:55 | 13.47429 | 2.00495 | 3653 ft | 195 kts | 93° |
| 2026-04-22 19:55 | 13.47448 | 2.01807 | 3462 ft | 178 kts | 85° |
| 2026-04-22 19:56 | 13.47507 | 2.03014 | 3235 ft | 159 kts | 85° |
| 2026-04-22 19:56 | 13.47559 | 2.04104 | 3052 ft | 149 kts | 85° |
| 2026-04-22 19:56 | 13.47609 | 2.05149 | 2865 ft | 145 kts | 85° |
| 2026-04-22 19:56 | 13.47658 | 2.06178 | 2681 ft | 143 kts | 85° |
| 2026-04-22 19:57 | 13.47706 | 2.07195 | 2512 ft | 142 kts | 85° |
| 2026-04-22 19:57 | 13.47753 | 2.08203 | 2341 ft | 141 kts | 85° |
| 2026-04-22 19:57 | 13.47800 | 2.09207 | 2162 ft | 141 kts | 85° |
| 2026-04-22 19:57 | 13.47848 | 2.10213 | 1992 ft | 141 kts | 84° |
| 2026-04-22 19:58 | 13.47894 | 2.11213 | 1816 ft | 139 kts | 84° |
| 2026-04-22 19:58 | 13.47941 | 2.12210 | 1651 ft | 140 kts | 85° |
| 2026-04-22 19:58 | 13.47988 | 2.13226 | 1463 ft | 143 kts | 84° |
| 2026-04-22 19:58 | 13.48036 | 2.14252 | 1291 ft | 144 kts | 85° |
| 2026-04-22 19:59 | 13.48083 | 2.15282 | 1071 ft | 145 kts | 84° |
| 2026-04-22 20:00 | 13.48271 | 2.19365 | 714 ft | 54 kts | 88° |
| 2026-04-22 20:00 | 13.48271 | 2.19637 | 714 ft | 22 kts | 112° |
| 2026-04-22 20:01 | 13.48248 | 2.19669 | 712 ft | 0 kts | 131° |
| 2026-04-22 20:01 | 13.48216 | 2.19698 | 713 ft | 14 kts | 151° |
| 2026-04-22 20:01 | 13.48131 | 2.19706 | 712 ft | 9 kts | 190° |
| 2026-04-22 20:01 | 13.48102 | 2.19676 | 715 ft | 6 kts | 249° |
| 2026-04-22 20:02 | 13.48090 | 2.19569 | 716 ft | 23 kts | 267° |
| 2026-04-22 20:02 | 13.48084 | 2.19412 | 716 ft | 19 kts | 268° |
| 2026-04-22 20:02 | 13.48079 | 2.19272 | 716 ft | 21 kts | 268° |
| 2026-04-22 20:02 | 13.48071 | 2.19108 | 721 ft | 25 kts | 267° |
| 2026-04-22 20:03 | 13.48063 | 2.18948 | 719 ft | 19 kts | 266° |
| 2026-04-22 20:03 | 13.48055 | 2.18807 | 723 ft | 22 kts | 267° |
| 2026-04-22 20:03 | 13.48049 | 2.18653 | 722 ft | 19 kts | 268° |
| 2026-04-22 20:03 | 13.48040 | 2.18545 | 723 ft | 10 kts | 264° |
| 2026-04-22 20:04 | 13.48007 | 2.18523 | 723 ft | 8 kts | 185° |
| 2026-04-22 20:04 | 13.47934 | 2.18520 | 723 ft | 11 kts | 189° |
| 2026-04-22 20:04 | 13.47897 | 2.18490 | 723 ft | 3 kts | 244° |
| 2026-04-22 20:04 | 13.47893 | 2.18463 | 723 ft | 10 kts | 268° |
| 2026-04-22 20:05 | 13.47891 | 2.18368 | 724 ft | 16 kts | 269° |
| 2026-04-22 20:05 | 13.47895 | 2.18240 | 725 ft | 21 kts | 272° |
| 2026-04-22 20:05 | 13.47897 | 2.18139 | 726 ft | 21 kts | 270° |
| 2026-04-22 20:05 | 13.47890 | 2.17988 | 728 ft | 11 kts | 261° |
| 2026-04-22 20:06 | 13.47874 | 2.17977 | 729 ft | 2 kts | 181° |
| 2026-04-22 20:06 | 13.47835 | 2.17979 | 728 ft | 7 kts | 176° |
| 2026-04-22 20:06 | 13.47807 | 2.17985 | 730 ft | 1 kts | 139° |
| 2026-04-22 20:06 | 13.47806 | 2.17985 | 730 ft | 0 kts | 139° |
| 2026-04-22 20:07 | 13.47806 | 2.17986 | 730 ft | 0 kts | 139° |
| 2026-04-22 20:07 | 13.47801 | 2.17976 | 729 ft | 3 kts | 271° |
| 2026-04-22 20:07 | 13.47826 | 2.17971 | 728 ft | 0 kts | 355° |
| 2026-04-22 20:08 | 13.47827 | 2.17970 | 728 ft | 0 kts | 352° |
| 2026-04-22 20:08 | 13.47832 | 2.17968 | 729 ft | 2 kts | 339° |
| 2026-04-22 20:08 | 13.47845 | 2.17962 | 730 ft | 3 kts | 339° |
| 2026-04-22 20:08 | 13.47877 | 2.17928 | 729 ft | 5 kts | 279° |
| 2026-04-22 20:09 | 13.47877 | 2.17919 | 730 ft | 0 kts | 270° |
| 2026-04-22 20:09 | 13.47876 | 2.17892 | 730 ft | 5 kts | 261° |
| 2026-04-22 20:09 | 13.47847 | 2.17889 | 730 ft | 7 kts | 157° |
| 2026-04-22 20:09 | 13.47815 | 2.17916 | 728 ft | 2 kts | 141° |
| 2026-04-22 20:10 | 13.47807 | 2.17922 | 730 ft | 1 kts | 141° |
| 2026-04-22 20:10 | 13.47806 | 2.17923 | 730 ft | 0 kts | 141° |
| 2026-04-22 20:14 | 13.47804 | 2.17925 | 730 ft | 0 kts | 143° |